Strona główna
METAR-TAF:

METAR-TAF

Lotnisko :

Port lotniczy Badajoz

Badajoz, Hiszpania

Szerokość geograficzna: 38-53N, Długość geograficzna: 006-49W, wysokość: 185 m

Aktualna obserwacja pogody

Raport powstał 33 minut temu, godzina 14:30 UTC
Wiatr 13 kt od zachodnio-południowy zachód, zmienny między południowy zachód i północny zachód
Temperatura 23°C
Wilgotność 38%
Ciśnienie 1013 hPa
Widzialność 10 km lub więcej
Mało chmury na wysokości 4800 ft

METAR: LEBZ 201430Z 25013KT 230V310 9999 FEW048 23/08 Q1013

czas: 17:03 (15:03 UTC)

Prognoza

Raport powstał 1 godzina i 3 minut temu, godzina 14:00 UTC
Prognoza ważna od 20 godzina 15 UTC do 21 godzina 15 UTC
Wiatr 8 kt od zachód
Widzialność 10 km lub więcej
Mało chmury na wysokości 4500 ft

TAF: LEBZ 201400Z 2015/2115 27008KT 9999 FEW045 TX24/2115Z TN10/2106Z

Obserwacja i prognoza pogody dla ponad 4000 lotnisk (raport METAR i TAF).

Dostępne stacje oznaczono żółtymi i czerwonymi punktami na mapie.

Najedź kursorem aby zobaczyć nazwę stacji.

Kliknij aby zobaczyć obserwacje i prognozy pogody.

Aby zmienić mapę: kliknij na zielony przycisk z czarnym krzyżykiem, aby powiększyć; na zielony przycisk z myślnikiem, aby pomniejszyć; na zielone strzałki, aby przejść do map sąsiednich.


METAR-TAF: